sensor_id;sensor_type;location;lat;lon;timestamp;temperature;humidity
70807;DHT22;58882;52.170;5.386;2022-09-03T00:02:47;23.60;33.90
70807;DHT22;58882;52.170;5.386;2022-09-03T00:05:34;23.70;34.10
70807;DHT22;58882;52.170;5.386;2022-09-03T00:08:31;23.60;34.10
70807;DHT22;58882;52.170;5.386;2022-09-03T00:14:10;23.60;34.00
70807;DHT22;58882;52.170;5.386;2022-09-03T00:16:58;23.60;34.10
70807;DHT22;58882;52.170;5.386;2022-09-03T00:20:04;23.60;34.10
70807;DHT22;58882;52.170;5.386;2022-09-03T00:22:43;23.60;34.20
70807;DHT22;58882;52.170;5.386;2022-09-03T00:28:28;23.50;34.30
70807;DHT22;58882;52.170;5.386;2022-09-03T00:31:36;23.50;34.40
70807;DHT22;58882;52.170;5.386;2022-09-03T00:34:37;23.50;34.40
70807;DHT22;58882;52.170;5.386;2022-09-03T00:37:33;23.50;34.40
70807;DHT22;58882;52.170;5.386;2022-09-03T00:40:21;23.40;34.10
70807;DHT22;58882;52.170;5.386;2022-09-03T00:46:25;23.40;34.60
70807;DHT22;58882;52.170;5.386;2022-09-03T00:52:17;23.40;34.60
70807;DHT22;58882;52.170;5.386;2022-09-03T01:01:49;23.30;34.40
70807;DHT22;58882;52.170;5.386;2022-09-03T01:08:13;23.30;34.90
70807;DHT22;58882;52.170;5.386;2022-09-03T01:12:12;23.20;34.90
70807;DHT22;58882;52.170;5.386;2022-09-03T01:29:29;23.10;35.10
70807;DHT22;58882;52.170;5.386;2022-09-03T01:35:29;23.10;35.40
70807;DHT22;58882;52.170;5.386;2022-09-03T01:50:45;23.10;35.80
70807;DHT22;58882;52.170;5.386;2022-09-03T01:54:29;23.10;35.80
70807;DHT22;58882;52.170;5.386;2022-09-03T01:57:51;23.00;35.60
70807;DHT22;58882;52.170;5.386;2022-09-03T02:00:43;23.00;35.70
70807;DHT22;58882;52.170;5.386;2022-09-03T02:03:25;23.00;35.60
70807;DHT22;58882;52.170;5.386;2022-09-03T02:06:20;23.00;35.70
70807;DHT22;58882;52.170;5.386;2022-09-03T02:09:00;23.00;35.80
70807;DHT22;58882;52.170;5.386;2022-09-03T02:12:02;22.90;35.80
70807;DHT22;58882;52.170;5.386;2022-09-03T02:14:45;22.90;35.90
70807;DHT22;58882;52.170;5.386;2022-09-03T02:17:34;22.90;35.90
70807;DHT22;58882;52.170;5.386;2022-09-03T02:20:12;22.90;36.00
70807;DHT22;58882;52.170;5.386;2022-09-03T02:23:09;22.90;36.00
70807;DHT22;58882;52.170;5.386;2022-09-03T02:25:47;22.90;36.10
70807;DHT22;58882;52.170;5.386;2022-09-03T02:28:42;22.90;36.10
70807;DHT22;58882;52.170;5.386;2022-09-03T02:31:23;22.90;35.90
70807;DHT22;58882;52.170;5.386;2022-09-03T02:34:17;22.90;35.90
70807;DHT22;58882;52.170;5.386;2022-09-03T02:36:57;22.80;36.00
70807;DHT22;58882;52.170;5.386;2022-09-03T02:39:44;22.80;36.10
70807;DHT22;58882;52.170;5.386;2022-09-03T02:42:24;22.80;35.90
70807;DHT22;58882;52.170;5.386;2022-09-03T02:45:28;22.80;35.80
70807;DHT22;58882;52.170;5.386;2022-09-03T02:48:09;22.80;35.90
70807;DHT22;58882;52.170;5.386;2022-09-03T02:50:57;22.80;35.90
70807;DHT22;58882;52.170;5.386;2022-09-03T02:53:46;22.80;35.80
70807;DHT22;58882;52.170;5.386;2022-09-03T02:56:33;22.80;35.80
70807;DHT22;58882;52.170;5.386;2022-09-03T02:59:13;22.70;35.90
70807;DHT22;58882;52.170;5.386;2022-09-03T03:02:09;22.70;35.90
70807;DHT22;58882;52.170;5.386;2022-09-03T03:04:49;22.70;35.90
70807;DHT22;58882;52.170;5.386;2022-09-03T03:07:38;22.70;35.90
70807;DHT22;58882;52.170;5.386;2022-09-03T03:10:19;22.70;36.10
70807;DHT22;58882;52.170;5.386;2022-09-03T03:13:06;22.70;36.20
70807;DHT22;58882;52.170;5.386;2022-09-03T03:15:46;22.70;36.10
70807;DHT22;58882;52.170;5.386;2022-09-03T03:18:34;22.60;36.10
70807;DHT22;58882;52.170;5.386;2022-09-03T03:21:16;22.60;36.20
70807;DHT22;58882;52.170;5.386;2022-09-03T03:24:03;22.60;36.10
70807;DHT22;58882;52.170;5.386;2022-09-03T03:26:43;22.60;36.10
70807;DHT22;58882;52.170;5.386;2022-09-03T03:29:37;22.60;36.10
70807;DHT22;58882;52.170;5.386;2022-09-03T03:32:18;22.60;36.10
70807;DHT22;58882;52.170;5.386;2022-09-03T03:35:12;22.60;36.20
70807;DHT22;58882;52.170;5.386;2022-09-03T03:37:52;22.60;36.20
70807;DHT22;58882;52.170;5.386;2022-09-03T03:40:39;22.50;36.10
70807;DHT22;58882;52.170;5.386;2022-09-03T03:43:19;22.50;36.10
70807;DHT22;58882;52.170;5.386;2022-09-03T03:46:06;22.50;36.00
70807;DHT22;58882;52.170;5.386;2022-09-03T03:48:47;22.50;36.10
70807;DHT22;58882;52.170;5.386;2022-09-03T03:51:35;22.50;36.20
70807;DHT22;58882;52.170;5.386;2022-09-03T03:54:22;22.50;36.10
70807;DHT22;58882;52.170;5.386;2022-09-03T03:57:17;22.50;36.10
70807;DHT22;58882;52.170;5.386;2022-09-03T03:59:58;22.50;36.30
70807;DHT22;58882;52.170;5.386;2022-09-03T04:02:48;22.50;36.20
70807;DHT22;58882;52.170;5.386;2022-09-03T04:05:29;22.50;36.20
70807;DHT22;58882;52.170;5.386;2022-09-03T04:08:28;22.40;36.20
70807;DHT22;58882;52.170;5.386;2022-09-03T04:11:10;22.40;36.20
70807;DHT22;58882;52.170;5.386;2022-09-03T04:13:58;22.40;36.20
70807;DHT22;58882;52.170;5.386;2022-09-03T04:16:38;22.50;36.10
70807;DHT22;58882;52.170;5.386;2022-09-03T04:19:25;22.40;36.20
70807;DHT22;58882;52.170;5.386;2022-09-03T04:22:27;22.40;36.20
70807;DHT22;58882;52.170;5.386;2022-09-03T04:25:14;22.40;36.40
70807;DHT22;58882;52.170;5.386;2022-09-03T04:27:54;22.40;36.30
70807;DHT22;58882;52.170;5.386;2022-09-03T04:30:42;22.40;36.50
70807;DHT22;58882;52.170;5.386;2022-09-03T04:33:24;22.40;36.40
70807;DHT22;58882;52.170;5.386;2022-09-03T04:36:20;22.40;36.30
70807;DHT22;58882;52.170;5.386;2022-09-03T04:39:00;22.40;36.30
70807;DHT22;58882;52.170;5.386;2022-09-03T04:41:54;22.40;36.20
70807;DHT22;58882;52.170;5.386;2022-09-03T04:44:27;22.40;36.40
70807;DHT22;58882;52.170;5.386;2022-09-03T04:47:24;22.40;36.40
70807;DHT22;58882;52.170;5.386;2022-09-03T04:49:57;22.30;36.40
70807;DHT22;58882;52.170;5.386;2022-09-03T04:52:54;22.30;36.40
70807;DHT22;58882;52.170;5.386;2022-09-03T04:55:46;22.30;36.50
70807;DHT22;58882;52.170;5.386;2022-09-03T04:58:26;22.30;36.70
70807;DHT22;58882;52.170;5.386;2022-09-03T05:01:25;22.30;36.60
70807;DHT22;58882;52.170;5.386;2022-09-03T05:04:00;22.30;36.70
70807;DHT22;58882;52.170;5.386;2022-09-03T05:06:54;22.30;37.70
70807;DHT22;58882;52.170;5.386;2022-09-03T05:09:34;22.30;36.70
70807;DHT22;58882;52.170;5.386;2022-09-03T05:12:21;22.30;36.80
70807;DHT22;58882;52.170;5.386;2022-09-03T05:15:02;22.30;37.70
70807;DHT22;58882;52.170;5.386;2022-09-03T05:18:00;22.30;36.70
70807;DHT22;58882;52.170;5.386;2022-09-03T05:20:40;22.30;36.80
70807;DHT22;58882;52.170;5.386;2022-09-03T05:23:28;22.30;36.80
70807;DHT22;58882;52.170;5.386;2022-09-03T05:26:18;22.30;36.80
70807;DHT22;58882;52.170;5.386;2022-09-03T05:29:06;22.30;36.90
70807;DHT22;58882;52.170;5.386;2022-09-03T05:31:39;22.30;36.80
70807;DHT22;58882;52.170;5.386;2022-09-03T05:34:33;22.30;36.80
70807;DHT22;58882;52.170;5.386;2022-09-03T05:37:13;22.30;36.80
70807;DHT22;58882;52.170;5.386;2022-09-03T05:40:07;22.30;36.70
70807;DHT22;58882;52.170;5.386;2022-09-03T05:42:54;22.30;36.70
70807;DHT22;58882;52.170;5.386;2022-09-03T05:45:48;22.30;36.70
70807;DHT22;58882;52.170;5.386;2022-09-03T05:48:29;22.30;36.60
70807;DHT22;58882;52.170;5.386;2022-09-03T05:51:17;22.30;36.50
70807;DHT22;58882;52.170;5.386;2022-09-03T05:54:04;22.30;36.40
70807;DHT22;58882;52.170;5.386;2022-09-03T05:56:58;22.30;36.30
70807;DHT22;58882;52.170;5.386;2022-09-03T05:59:38;22.30;36.70
70807;DHT22;58882;52.170;5.386;2022-09-03T06:02:25;22.30;37.30
70807;DHT22;58882;52.170;5.386;2022-09-03T06:05:05;22.30;36.20
70807;DHT22;58882;52.170;5.386;2022-09-03T06:07:52;22.40;36.20
70807;DHT22;58882;52.170;5.386;2022-09-03T06:10:32;22.40;36.10
70807;DHT22;58882;52.170;5.386;2022-09-03T06:13:20;22.50;35.90
70807;DHT22;58882;52.170;5.386;2022-09-03T06:16:02;22.60;35.80
70807;DHT22;58882;52.170;5.386;2022-09-03T06:18:49;22.60;35.60
70807;DHT22;58882;52.170;5.386;2022-09-03T06:21:30;22.70;35.40
70807;DHT22;58882;52.170;5.386;2022-09-03T06:24:20;22.90;35.30
70807;DHT22;58882;52.170;5.386;2022-09-03T06:27:02;23.00;35.00
70807;DHT22;58882;52.170;5.386;2022-09-03T06:29:56;23.20;34.70
70807;DHT22;58882;52.170;5.386;2022-09-03T06:32:46;23.40;34.50
70807;DHT22;58882;52.170;5.386;2022-09-03T06:35:34;23.60;34.30
70807;DHT22;58882;52.170;5.386;2022-09-03T06:38:15;23.80;33.90
70807;DHT22;58882;52.170;5.386;2022-09-03T06:41:09;24.00;33.60
70807;DHT22;58882;52.170;5.386;2022-09-03T06:43:53;24.30;33.30
70807;DHT22;58882;52.170;5.386;2022-09-03T06:46:42;24.50;32.90
70807;DHT22;58882;52.170;5.386;2022-09-03T06:49:22;24.70;32.50
70807;DHT22;58882;52.170;5.386;2022-09-03T06:52:10;24.90;32.20
70807;DHT22;58882;52.170;5.386;2022-09-03T06:54:50;25.10;31.90
70807;DHT22;58882;52.170;5.386;2022-09-03T06:57:44;25.30;31.50
70807;DHT22;58882;52.170;5.386;2022-09-03T07:00:26;25.60;31.20
70807;DHT22;58882;52.170;5.386;2022-09-03T07:03:13;25.80;31.00
70807;DHT22;58882;52.170;5.386;2022-09-03T07:05:46;26.10;30.60
70807;DHT22;58882;52.170;5.386;2022-09-03T07:08:40;26.30;30.30
70807;DHT22;58882;52.170;5.386;2022-09-03T07:11:16;26.60;30.10
70807;DHT22;58882;52.170;5.386;2022-09-03T07:14:13;26.80;29.80
70807;DHT22;58882;52.170;5.386;2022-09-03T07:16:53;27.10;29.50
70807;DHT22;58882;52.170;5.386;2022-09-03T07:19:40;27.40;29.30
70807;DHT22;58882;52.170;5.386;2022-09-03T07:22:20;27.60;29.00
70807;DHT22;58882;52.170;5.386;2022-09-03T07:25:10;27.90;28.80
70807;DHT22;58882;52.170;5.386;2022-09-03T07:27:50;28.10;28.50
70807;DHT22;58882;52.170;5.386;2022-09-03T07:30:37;28.30;28.30
70807;DHT22;58882;52.170;5.386;2022-09-03T07:33:18;28.30;28.20
70807;DHT22;58882;52.170;5.386;2022-09-03T07:36:07;28.40;28.00
70807;DHT22;58882;52.170;5.386;2022-09-03T07:38:48;28.40;27.90
70807;DHT22;58882;52.170;5.386;2022-09-03T07:41:35;28.50;27.90
70807;DHT22;58882;52.170;5.386;2022-09-03T07:44:17;28.50;28.00
70807;DHT22;58882;52.170;5.386;2022-09-03T07:47:11;28.60;27.90
70807;DHT22;58882;52.170;5.386;2022-09-03T07:49:45;28.60;27.80
70807;DHT22;58882;52.170;5.386;2022-09-03T07:52:39;28.70;27.90
70807;DHT22;58882;52.170;5.386;2022-09-03T07:55:13;28.70;27.70
70807;DHT22;58882;52.170;5.386;2022-09-03T07:58:06;28.80;27.70
70807;DHT22;58882;52.170;5.386;2022-09-03T08:00:39;29.00;27.60
70807;DHT22;58882;52.170;5.386;2022-09-03T08:03:37;29.10;27.50
70807;DHT22;58882;52.170;5.386;2022-09-03T08:06:19;29.20;27.30
70807;DHT22;58882;52.170;5.386;2022-09-03T08:09:09;29.30;27.30
70807;DHT22;58882;52.170;5.386;2022-09-03T08:11:50;29.50;27.10
70807;DHT22;58882;52.170;5.386;2022-09-03T08:14:37;29.70;27.00
70807;DHT22;58882;52.170;5.386;2022-09-03T08:17:11;29.80;26.90
70807;DHT22;58882;52.170;5.386;2022-09-03T08:20:05;29.90;26.80
70807;DHT22;58882;52.170;5.386;2022-09-03T08:22:45;30.00;26.70
70807;DHT22;58882;52.170;5.386;2022-09-03T08:25:32;30.10;26.60
70807;DHT22;58882;52.170;5.386;2022-09-03T08:28:05;30.20;26.40
70807;DHT22;58882;52.170;5.386;2022-09-03T08:31:12;30.30;26.30
70807;DHT22;58882;52.170;5.386;2022-09-03T08:33:54;30.40;26.10
70807;DHT22;58882;52.170;5.386;2022-09-03T08:36:41;30.60;26.00
70807;DHT22;58882;52.170;5.386;2022-09-03T08:39:22;30.70;26.60
70807;DHT22;58882;52.170;5.386;2022-09-03T08:42:18;30.70;25.80
70807;DHT22;58882;52.170;5.386;2022-09-03T08:45:02;30.80;25.70
70807;DHT22;58882;52.170;5.386;2022-09-03T08:48:00;30.90;25.50
70807;DHT22;58882;52.170;5.386;2022-09-03T08:50:46;31.00;25.50
70807;DHT22;58882;52.170;5.386;2022-09-03T08:53:48;31.00;25.30
70807;DHT22;58882;52.170;5.386;2022-09-03T08:56:39;31.10;25.30
70807;DHT22;58882;52.170;5.386;2022-09-03T08:59:20;31.20;25.20
70807;DHT22;58882;52.170;5.386;2022-09-03T09:02:31;31.30;25.10
70807;DHT22;58882;52.170;5.386;2022-09-03T09:05:19;31.30;25.00
70807;DHT22;58882;52.170;5.386;2022-09-03T09:08:29;31.40;24.90
70807;DHT22;58882;52.170;5.386;2022-09-03T09:11:28;31.50;24.80
70807;DHT22;58882;52.170;5.386;2022-09-03T09:14:35;31.60;24.80
70807;DHT22;58882;52.170;5.386;2022-09-03T09:23:34;31.80;24.80
70807;DHT22;58882;52.170;5.386;2022-09-03T09:26:22;31.80;24.70
70807;DHT22;58882;52.170;5.386;2022-09-03T09:29:07;31.90;24.60
70807;DHT22;58882;52.170;5.386;2022-09-03T09:32:02;31.90;24.60
70807;DHT22;58882;52.170;5.386;2022-09-03T09:34:38;32.00;24.60
70807;DHT22;58882;52.170;5.386;2022-09-03T09:37:32;32.00;24.60
70807;DHT22;58882;52.170;5.386;2022-09-03T09:40:25;32.00;24.50
70807;DHT22;58882;52.170;5.386;2022-09-03T09:43:24;32.10;24.50
70807;DHT22;58882;52.170;5.386;2022-09-03T09:46:09;32.10;24.40
70807;DHT22;58882;52.170;5.386;2022-09-03T09:49:29;32.10;24.40
70807;DHT22;58882;52.170;5.386;2022-09-03T09:52:12;32.20;24.50
70807;DHT22;58882;52.170;5.386;2022-09-03T09:55:15;32.20;24.40
70807;DHT22;58882;52.170;5.386;2022-09-03T09:58:10;32.20;24.40
70807;DHT22;58882;52.170;5.386;2022-09-03T10:01:09;32.20;24.30
70807;DHT22;58882;52.170;5.386;2022-09-03T10:03:58;32.20;24.40
70807;DHT22;58882;52.170;5.386;2022-09-03T10:06:39;32.20;24.30
70807;DHT22;58882;52.170;5.386;2022-09-03T10:09:32;32.20;24.30
70807;DHT22;58882;52.170;5.386;2022-09-03T10:12:23;32.20;24.40
70807;DHT22;58882;52.170;5.386;2022-09-03T10:15:38;32.20;24.30
70807;DHT22;58882;52.170;5.386;2022-09-03T10:18:41;32.30;24.40
70807;DHT22;58882;52.170;5.386;2022-09-03T10:24:52;32.30;24.30
70807;DHT22;58882;52.170;5.386;2022-09-03T10:27:51;32.30;24.30
70807;DHT22;58882;52.170;5.386;2022-09-03T10:36:56;32.20;24.30
70807;DHT22;58882;52.170;5.386;2022-09-03T10:42:45;32.10;24.30
70807;DHT22;58882;52.170;5.386;2022-09-03T10:51:34;32.20;24.30
70807;DHT22;58882;52.170;5.386;2022-09-03T10:54:54;32.20;24.40
70807;DHT22;58882;52.170;5.386;2022-09-03T11:00:55;32.10;24.40
70807;DHT22;58882;52.170;5.386;2022-09-03T11:07:06;32.00;24.50
70807;DHT22;58882;52.170;5.386;2022-09-03T11:10:16;31.90;24.50
70807;DHT22;58882;52.170;5.386;2022-09-03T11:13:25;31.90;24.60
70807;DHT22;58882;52.170;5.386;2022-09-03T11:16:33;31.80;24.50
70807;DHT22;58882;52.170;5.386;2022-09-03T11:19:18;31.80;24.60
70807;DHT22;58882;52.170;5.386;2022-09-03T11:22:07;31.70;24.60
70807;DHT22;58882;52.170;5.386;2022-09-03T11:24:58;31.70;24.70
70807;DHT22;58882;52.170;5.386;2022-09-03T11:27:49;31.60;24.70
70807;DHT22;58882;52.170;5.386;2022-09-03T11:31:12;31.60;24.70
70807;DHT22;58882;52.170;5.386;2022-09-03T11:37:17;31.50;24.90
70807;DHT22;58882;52.170;5.386;2022-09-03T11:40:15;31.50;25.00
70807;DHT22;58882;52.170;5.386;2022-09-03T11:43:27;31.40;25.00
70807;DHT22;58882;52.170;5.386;2022-09-03T11:49:11;31.20;25.10
70807;DHT22;58882;52.170;5.386;2022-09-03T11:52:01;31.20;25.20
70807;DHT22;58882;52.170;5.386;2022-09-03T11:54:50;31.10;25.20
70807;DHT22;58882;52.170;5.386;2022-09-03T11:57:46;31.10;25.30
70807;DHT22;58882;52.170;5.386;2022-09-03T12:00:26;31.00;25.40
70807;DHT22;58882;52.170;5.386;2022-09-03T12:04:00;31.00;25.40
70807;DHT22;58882;52.170;5.386;2022-09-03T12:18:35;30.60;25.70
70807;DHT22;58882;52.170;5.386;2022-09-03T12:21:22;30.50;25.70
70807;DHT22;58882;52.170;5.386;2022-09-03T12:24:00;30.50;25.90
70807;DHT22;58882;52.170;5.386;2022-09-03T12:26:57;30.50;25.90
70807;DHT22;58882;52.170;5.386;2022-09-03T12:29:38;30.40;26.80
70807;DHT22;58882;52.170;5.386;2022-09-03T12:32:35;30.40;26.00
70807;DHT22;58882;52.170;5.386;2022-09-03T12:35:19;30.30;26.00
70807;DHT22;58882;52.170;5.386;2022-09-03T12:38:28;30.20;26.00
70807;DHT22;58882;52.170;5.386;2022-09-03T12:41:29;30.20;26.10
70807;DHT22;58882;52.170;5.386;2022-09-03T12:44:24;30.20;26.10
70807;DHT22;58882;52.170;5.386;2022-09-03T12:47:12;30.10;26.20
70807;DHT22;58882;52.170;5.386;2022-09-03T12:50:24;30.00;26.20
70807;DHT22;58882;52.170;5.386;2022-09-03T12:53:04;29.90;26.20
70807;DHT22;58882;52.170;5.386;2022-09-03T12:55:54;29.90;26.30
70807;DHT22;58882;52.170;5.386;2022-09-03T12:58:52;29.90;26.50
70807;DHT22;58882;52.170;5.386;2022-09-03T13:01:46;30.00;26.50
70807;DHT22;58882;52.170;5.386;2022-09-03T13:04:25;29.90;26.60
70807;DHT22;58882;52.170;5.386;2022-09-03T13:07:25;29.80;26.70
70807;DHT22;58882;52.170;5.386;2022-09-03T13:10:07;29.70;26.70
70807;DHT22;58882;52.170;5.386;2022-09-03T13:13:16;29.70;26.90
70807;DHT22;58882;52.170;5.386;2022-09-03T13:28:38;29.20;27.30
70807;DHT22;58882;52.170;5.386;2022-09-03T13:31:45;29.20;27.20
70807;DHT22;58882;52.170;5.386;2022-09-03T13:34:34;29.10;27.30
70807;DHT22;58882;52.170;5.386;2022-09-03T13:37:42;28.90;27.40
70807;DHT22;58882;52.170;5.386;2022-09-03T13:43:42;28.80;27.50
70807;DHT22;58882;52.170;5.386;2022-09-03T13:46:28;28.80;27.60
70807;DHT22;58882;52.170;5.386;2022-09-03T13:49:55;28.70;27.60
70807;DHT22;58882;52.170;5.386;2022-09-03T14:00:05;28.50;27.80
70807;DHT22;58882;52.170;5.386;2022-09-03T14:02:52;28.40;27.80
70807;DHT22;58882;52.170;5.386;2022-09-03T14:09:00;28.30;28.00
70807;DHT22;58882;52.170;5.386;2022-09-03T14:12:24;28.20;27.90
70807;DHT22;58882;52.170;5.386;2022-09-03T14:15:25;28.20;28.10
70807;DHT22;58882;52.170;5.386;2022-09-03T14:18:39;28.20;28.20
70807;DHT22;58882;52.170;5.386;2022-09-03T14:21:30;28.10;32.60
70807;DHT22;58882;52.170;5.386;2022-09-03T14:27:24;27.90;36.30
70807;DHT22;58882;52.170;5.386;2022-09-03T14:33:33;27.60;38.00
70807;DHT22;58882;52.170;5.386;2022-09-03T14:36:30;27.50;38.50
70807;DHT22;58882;52.170;5.386;2022-09-03T14:42:47;27.20;39.60
70807;DHT22;58882;52.170;5.386;2022-09-03T14:46:07;27.10;40.20
70807;DHT22;58882;52.170;5.386;2022-09-03T14:55:39;26.90;41.50
70807;DHT22;58882;52.170;5.386;2022-09-03T15:01:33;26.70;42.20
70807;DHT22;58882;52.170;5.386;2022-09-03T15:10:46;26.50;43.20
70807;DHT22;58882;52.170;5.386;2022-09-03T15:13:44;26.50;43.50
70807;DHT22;58882;52.170;5.386;2022-09-03T15:16:47;26.40;43.60
70807;DHT22;58882;52.170;5.386;2022-09-03T15:19:55;26.30;44.00
70807;DHT22;58882;52.170;5.386;2022-09-03T15:23:05;26.30;44.30
70807;DHT22;58882;52.170;5.386;2022-09-03T15:34:55;26.10;45.10
70807;DHT22;58882;52.170;5.386;2022-09-03T15:37:54;26.10;45.10
70807;DHT22;58882;52.170;5.386;2022-09-03T15:43:31;26.00;45.60
70807;DHT22;58882;52.170;5.386;2022-09-03T15:55:38;25.80;46.20
70807;DHT22;58882;52.170;5.386;2022-09-03T16:01:39;25.80;46.60
70807;DHT22;58882;52.170;5.386;2022-09-03T16:10:55;25.70;46.70
70807;DHT22;58882;52.170;5.386;2022-09-03T16:20:22;25.60;46.80
70807;DHT22;58882;52.170;5.386;2022-09-03T16:26:00;25.60;46.90
70807;DHT22;58882;52.170;5.386;2022-09-03T16:28:53;25.60;46.80
70807;DHT22;58882;52.170;5.386;2022-09-03T16:44:02;25.50;46.90
70807;DHT22;58882;52.170;5.386;2022-09-03T16:47:01;25.50;46.90
70807;DHT22;58882;52.170;5.386;2022-09-03T16:59:45;25.40;47.30
70807;DHT22;58882;52.170;5.386;2022-09-03T17:12:07;25.40;47.60
70807;DHT22;58882;52.170;5.386;2022-09-03T17:15:30;25.30;47.70
70807;DHT22;58882;52.170;5.386;2022-09-03T17:24:30;25.30;47.90
70807;DHT22;58882;52.170;5.386;2022-09-03T17:30:54;25.30;47.90
70807;DHT22;58882;52.170;5.386;2022-09-03T17:36:35;25.20;47.80
70807;DHT22;58882;52.170;5.386;2022-09-03T17:42:32;25.20;48.00
70807;DHT22;58882;52.170;5.386;2022-09-03T17:51:46;25.20;49.10
70807;DHT22;58882;52.170;5.386;2022-09-03T17:54:35;25.20;48.20
70807;DHT22;58882;52.170;5.386;2022-09-03T17:57:47;25.10;48.30
70807;DHT22;58882;52.170;5.386;2022-09-03T18:04:17;25.10;48.30
70807;DHT22;58882;52.170;5.386;2022-09-03T18:10:26;25.10;48.40
70807;DHT22;58882;52.170;5.386;2022-09-03T18:16:32;25.10;48.40
70807;DHT22;58882;52.170;5.386;2022-09-03T18:19:49;25.10;48.50
70807;DHT22;58882;52.170;5.386;2022-09-03T18:26:38;25.10;48.50
70807;DHT22;58882;52.170;5.386;2022-09-03T18:29:44;25.10;48.50
70807;DHT22;58882;52.170;5.386;2022-09-03T18:32:50;25.00;48.50
70807;DHT22;58882;52.170;5.386;2022-09-03T18:35:44;25.00;48.50
70807;DHT22;58882;52.170;5.386;2022-09-03T18:39:23;25.00;48.50
70807;DHT22;58882;52.170;5.386;2022-09-03T18:46:04;25.00;48.60
70807;DHT22;58882;52.170;5.386;2022-09-03T18:49:39;25.00;48.60
70807;DHT22;58882;52.170;5.386;2022-09-03T18:56:17;25.00;48.70
70807;DHT22;58882;52.170;5.386;2022-09-03T19:03:24;25.00;48.60
70807;DHT22;58882;52.170;5.386;2022-09-03T19:13:36;24.90;48.60
70807;DHT22;58882;52.170;5.386;2022-09-03T19:20:28;24.90;48.60
70807;DHT22;58882;52.170;5.386;2022-09-03T19:23:27;24.90;48.60
70807;DHT22;58882;52.170;5.386;2022-09-03T19:31:37;24.90;48.40
70807;DHT22;58882;52.170;5.386;2022-09-03T19:38:00;24.90;48.20
70807;DHT22;58882;52.170;5.386;2022-09-03T19:41:08;24.90;48.00
70807;DHT22;58882;52.170;5.386;2022-09-03T19:48:13;24.90;47.70
70807;DHT22;58882;52.170;5.386;2022-09-03T19:51:45;24.90;47.90
70807;DHT22;58882;52.170;5.386;2022-09-03T19:55:01;24.90;47.60
70807;DHT22;58882;52.170;5.386;2022-09-03T19:58:17;24.80;47.50
70807;DHT22;58882;52.170;5.386;2022-09-03T20:01:33;24.80;48.00
70807;DHT22;58882;52.170;5.386;2022-09-03T20:04:37;24.80;46.70
70807;DHT22;58882;52.170;5.386;2022-09-03T20:07:44;24.80;46.90
70807;DHT22;58882;52.170;5.386;2022-09-03T20:10:38;24.80;46.70
70807;DHT22;58882;52.170;5.386;2022-09-03T20:13:37;24.90;45.40
70807;DHT22;58882;52.170;5.386;2022-09-03T20:20:14;24.90;43.90
70807;DHT22;58882;52.170;5.386;2022-09-03T20:23:29;24.90;44.30
70807;DHT22;58882;52.170;5.386;2022-09-03T20:35:55;24.90;43.90
70807;DHT22;58882;52.170;5.386;2022-09-03T20:42:22;24.90;43.20
70807;DHT22;58882;52.170;5.386;2022-09-03T20:45:24;24.90;43.90
70807;DHT22;58882;52.170;5.386;2022-09-03T20:48:25;24.90;42.60
70807;DHT22;58882;52.170;5.386;2022-09-03T20:51:24;25.00;42.50
70807;DHT22;58882;52.170;5.386;2022-09-03T20:54:20;25.00;42.20
70807;DHT22;58882;52.170;5.386;2022-09-03T21:00:12;25.00;41.60
70807;DHT22;58882;52.170;5.386;2022-09-03T21:03:15;24.90;41.20
70807;DHT22;58882;52.170;5.386;2022-09-03T21:06:29;25.00;41.20
70807;DHT22;58882;52.170;5.386;2022-09-03T21:21:58;24.90;41.00
70807;DHT22;58882;52.170;5.386;2022-09-03T21:24:53;24.90;40.90
70807;DHT22;58882;52.170;5.386;2022-09-03T21:27:42;24.90;40.90
70807;DHT22;58882;52.170;5.386;2022-09-03T21:30:32;24.90;40.90
70807;DHT22;58882;52.170;5.386;2022-09-03T21:33:23;24.90;40.90
70807;DHT22;58882;52.170;5.386;2022-09-03T21:36:24;24.80;40.80
70807;DHT22;58882;52.170;5.386;2022-09-03T21:39:13;24.80;40.80
70807;DHT22;58882;52.170;5.386;2022-09-03T21:45:13;24.80;40.90
70807;DHT22;58882;52.170;5.386;2022-09-03T21:48:27;24.80;40.90
70807;DHT22;58882;52.170;5.386;2022-09-03T21:51:23;24.70;40.80
70807;DHT22;58882;52.170;5.386;2022-09-03T21:54:26;24.70;40.80
70807;DHT22;58882;52.170;5.386;2022-09-03T22:00:18;24.70;40.80
70807;DHT22;58882;52.170;5.386;2022-09-03T22:03:08;24.60;40.70
70807;DHT22;58882;52.170;5.386;2022-09-03T22:06:18;24.60;40.80
70807;DHT22;58882;52.170;5.386;2022-09-03T22:09:17;24.60;40.80
70807;DHT22;58882;52.170;5.386;2022-09-03T22:12:24;24.60;40.70
70807;DHT22;58882;52.170;5.386;2022-09-03T22:15:08;24.60;40.70
70807;DHT22;58882;52.170;5.386;2022-09-03T22:18:19;24.50;40.70
70807;DHT22;58882;52.170;5.386;2022-09-03T22:21:27;24.50;40.70
70807;DHT22;58882;52.170;5.386;2022-09-03T22:24:44;24.50;40.70
70807;DHT22;58882;52.170;5.386;2022-09-03T22:27:41;24.50;40.70
70807;DHT22;58882;52.170;5.386;2022-09-03T22:30:45;24.50;40.70
70807;DHT22;58882;52.170;5.386;2022-09-03T22:33:34;24.40;40.60
70807;DHT22;58882;52.170;5.386;2022-09-03T22:36:38;24.40;41.60
70807;DHT22;58882;52.170;5.386;2022-09-03T22:42:42;24.40;41.00
70807;DHT22;58882;52.170;5.386;2022-09-03T22:52:12;24.30;40.90
70807;DHT22;58882;52.170;5.386;2022-09-03T22:55:19;24.30;40.90
70807;DHT22;58882;52.170;5.386;2022-09-03T22:58:18;24.20;40.90
70807;DHT22;58882;52.170;5.386;2022-09-03T23:01:21;24.20;40.80
70807;DHT22;58882;52.170;5.386;2022-09-03T23:04:21;24.20;40.90
70807;DHT22;58882;52.170;5.386;2022-09-03T23:07:21;24.20;41.20
70807;DHT22;58882;52.170;5.386;2022-09-03T23:10:09;24.20;41.00
70807;DHT22;58882;52.170;5.386;2022-09-03T23:13:13;24.20;41.00
70807;DHT22;58882;52.170;5.386;2022-09-03T23:16:04;24.10;41.20
70807;DHT22;58882;52.170;5.386;2022-09-03T23:18:55;24.10;41.20
70807;DHT22;58882;52.170;5.386;2022-09-03T23:21:38;24.10;41.40
70807;DHT22;58882;52.170;5.386;2022-09-03T23:24:48;24.10;41.30
70807;DHT22;58882;52.170;5.386;2022-09-03T23:27:30;24.00;41.50
70807;DHT22;58882;52.170;5.386;2022-09-03T23:30:28;24.00;41.70
70807;DHT22;58882;52.170;5.386;2022-09-03T23:33:07;24.00;41.90
70807;DHT22;58882;52.170;5.386;2022-09-03T23:36:01;24.00;42.00
70807;DHT22;58882;52.170;5.386;2022-09-03T23:45:13;24.00;42.00
70807;DHT22;58882;52.170;5.386;2022-09-03T23:54:46;24.00;42.30
70807;DHT22;58882;52.170;5.386;2022-09-03T23:57:38;24.00;42.20
